Palo, Minnesota
Current Conditions -  °F | °C
As of 10:51 AM on Friday 28 Nov 2014 (Local Time) from KEVM Reporting Station
Light Snow Light Snow  
Wind Chill: 12°   Ceiling: Unl
Heat Index: 12°   Visibility: 1.5mi
Dew Point:   Wind: 3mph
Humidity: 85%   Direction: 90°E
Pressure: 29.97"   Gusts: NA
Location:  47.4622°N, 92.1946°W
Report Text: KEVM 281651Z AUTO 09003KT 1 1/2SM -SN SCT015 M11/M13 A2997 RMK AO2
Loading
Personal Weather Stations






























Interactive Weather Map New forecast layout! Learn more

10-Day Weather Forecast

Advertisements
Track Severe Weather on mobile